デリー の空港の天気 - METARとTAF

インディラ・ガンディー国際空港 ( VIDP / DEL ) - インド デリー
飛行場実況気象(Metar)
観測時間10/20 09:30 IST (10/20 04:00 UTC)
風向・風速西南西 2m/s
視程1200m
天気現象
少しの雲 雲底高度 1220m
全天の4割程度の雲 雲底高度 3050m
気温23℃
湿度73%
気圧1017hPa
METARVIDP 200400Z 25003KT 1200 R28/1400 R29/P2000 FU FEW040 SCT100 23/18 Q1017 NOSIG
過去の天気等 Google飛行場航空写真 Wunderground天気予報

過去48時間のMETAR

飛行場予報(TAF)
発表時間: 10/20 07:30 IST (10/20 02:00 UTC)
予報対象時間: 20日8時 IST ~ 20日17時 IST
風向・風速西 2m/s
視程1500m
天気現象もや
全天の4割程度の雲 雲底高度 3050m
20日9時 IST ~ 20日11時 IST に徐々に
風向・風速北 4m/s
視程2800m
天気現象煙霧 煙
なし
20日13時 IST ~ 20日15時 IST に徐々に
視程3500m
天気現象煙霧
TAF VIDP 200200Z 2003/2012 27004KT 1500 BR SCT100
BECMG 2004/2006 35008KT 2800 HZ FU NSC
BECMG 2008/2010 3500 HZ